Aviation Digital Data Service (ADDS)

Output produced by TAFs form (0426 UTC 05 July 2015)
found at http://aviationweather.gov/adds/tafs/
 
KTUS 050321Z 0503/0524 24007KT P6SM VCSH SCT100 BKN150 
     FM051000 15007KT P6SM SCT100 BKN150 
     FM052000 28009KT P6SM VCSH SCT100 BKN150